sensor_id;sensor_type;location;lat;lon;timestamp;P1;durP1;ratioP1;P2;durP2;ratioP2
43793;SDS011;29414;44.798;20.366;2023-05-10T00:00:33;7.63;;;3.63;;
43793;SDS011;29414;44.798;20.366;2023-05-10T00:04:33;3.70;;;3.40;;
43793;SDS011;29414;44.798;20.366;2023-05-10T00:08:34;4.27;;;3.87;;
43793;SDS011;29414;44.798;20.366;2023-05-10T00:12:34;6.93;;;3.63;;
43793;SDS011;29414;44.798;20.366;2023-05-10T00:16:34;3.70;;;3.20;;
43793;SDS011;29414;44.798;20.366;2023-05-10T00:20:35;5.67;;;3.47;;
43793;SDS011;29414;44.798;20.366;2023-05-10T00:24:35;8.32;;;3.84;;
43793;SDS011;29414;44.798;20.366;2023-05-10T00:28:35;3.63;;;3.30;;
43793;SDS011;29414;44.798;20.366;2023-05-10T00:32:35;5.43;;;3.20;;
43793;SDS011;29414;44.798;20.366;2023-05-10T00:36:36;3.43;;;3.13;;
43793;SDS011;29414;44.798;20.366;2023-05-10T00:40:36;3.27;;;2.83;;
43793;SDS011;29414;44.798;20.366;2023-05-10T00:44:37;3.60;;;2.47;;
43793;SDS011;29414;44.798;20.366;2023-05-10T00:48:37;3.63;;;2.37;;
43793;SDS011;29414;44.798;20.366;2023-05-10T00:52:38;2.93;;;2.50;;
43793;SDS011;29414;44.798;20.366;2023-05-10T00:56:38;2.03;;;1.93;;
43793;SDS011;29414;44.798;20.366;2023-05-10T01:00:39;3.67;;;2.80;;
43793;SDS011;29414;44.798;20.366;2023-05-10T01:04:41;4.40;;;2.50;;
43793;SDS011;29414;44.798;20.366;2023-05-10T01:08:42;3.93;;;2.97;;
43793;SDS011;29414;44.798;20.366;2023-05-10T01:12:43;3.03;;;2.43;;
43793;SDS011;29414;44.798;20.366;2023-05-10T01:16:46;2.43;;;1.90;;
43793;SDS011;29414;44.798;20.366;2023-05-10T01:20:47;3.53;;;2.80;;
43793;SDS011;29414;44.798;20.366;2023-05-10T01:33:46;4.40;;;2.30;;
43793;SDS011;29414;44.798;20.366;2023-05-10T01:38:32;3.57;;;2.17;;
43793;SDS011;29414;44.798;20.366;2023-05-10T01:42:14;2.37;;;2.20;;
43793;SDS011;29414;44.798;20.366;2023-05-10T01:46:16;2.73;;;2.20;;
43793;SDS011;29414;44.798;20.366;2023-05-10T01:50:18;2.90;;;2.47;;
43793;SDS011;29414;44.798;20.366;2023-05-10T01:54:20;2.97;;;2.27;;
43793;SDS011;29414;44.798;20.366;2023-05-10T01:58:25;2.63;;;2.43;;
43793;SDS011;29414;44.798;20.366;2023-05-10T02:02:27;4.20;;;2.17;;
43793;SDS011;29414;44.798;20.366;2023-05-10T02:06:27;3.20;;;2.10;;
43793;SDS011;29414;44.798;20.366;2023-05-10T02:10:28;2.33;;;2.10;;
43793;SDS011;29414;44.798;20.366;2023-05-10T02:14:32;2.53;;;2.27;;
43793;SDS011;29414;44.798;20.366;2023-05-10T02:18:34;3.87;;;2.60;;
43793;SDS011;29414;44.798;20.366;2023-05-10T02:22:35;2.83;;;2.23;;
43793;SDS011;29414;44.798;20.366;2023-05-10T02:26:36;3.07;;;1.97;;
43793;SDS011;29414;44.798;20.366;2023-05-10T02:30:38;2.50;;;2.30;;
43793;SDS011;29414;44.798;20.366;2023-05-10T02:34:38;5.27;;;2.17;;
43793;SDS011;29414;44.798;20.366;2023-05-10T02:38:39;2.80;;;2.60;;
43793;SDS011;29414;44.798;20.366;2023-05-10T02:42:41;2.57;;;2.37;;
43793;SDS011;29414;44.798;20.366;2023-05-10T02:46:42;3.13;;;2.73;;
43793;SDS011;29414;44.798;20.366;2023-05-10T02:50:44;2.97;;;2.07;;
43793;SDS011;29414;44.798;20.366;2023-05-10T02:54:48;3.33;;;3.03;;
43793;SDS011;29414;44.798;20.366;2023-05-10T02:58:50;7.00;;;2.90;;
43793;SDS011;29414;44.798;20.366;2023-05-10T03:02:50;3.43;;;2.47;;
43793;SDS011;29414;44.798;20.366;2023-05-10T03:06:50;2.53;;;2.33;;
43793;SDS011;29414;44.798;20.366;2023-05-10T03:10:55;2.63;;;2.43;;
43793;SDS011;29414;44.798;20.366;2023-05-10T03:23:56;6.93;;;3.00;;
43793;SDS011;29414;44.798;20.366;2023-05-10T03:27:58;7.57;;;3.27;;
43793;SDS011;29414;44.798;20.366;2023-05-10T03:31:59;2.77;;;2.53;;
43793;SDS011;29414;44.798;20.366;2023-05-10T03:36:00;4.63;;;3.17;;
43793;SDS011;29414;44.798;20.366;2023-05-10T03:40:00;4.20;;;2.93;;
43793;SDS011;29414;44.798;20.366;2023-05-10T03:44:01;3.17;;;2.97;;
43793;SDS011;29414;44.798;20.366;2023-05-10T03:48:01;3.33;;;2.90;;
43793;SDS011;29414;44.798;20.366;2023-05-10T03:52:01;2.97;;;2.77;;
43793;SDS011;29414;44.798;20.366;2023-05-10T03:56:02;3.63;;;3.17;;
43793;SDS011;29414;44.798;20.366;2023-05-10T04:00:03;3.27;;;3.07;;
43793;SDS011;29414;44.798;20.366;2023-05-10T04:04:03;4.80;;;3.17;;
43793;SDS011;29414;44.798;20.366;2023-05-10T04:08:03;4.90;;;3.13;;
43793;SDS011;29414;44.798;20.366;2023-05-10T04:12:04;5.97;;;3.47;;
43793;SDS011;29414;44.798;20.366;2023-05-10T04:16:05;3.80;;;3.37;;
43793;SDS011;29414;44.798;20.366;2023-05-10T04:20:05;3.70;;;3.43;;
43793;SDS011;29414;44.798;20.366;2023-05-10T04:24:06;4.57;;;3.53;;
43793;SDS011;29414;44.798;20.366;2023-05-10T04:28:06;4.03;;;3.43;;
43793;SDS011;29414;44.798;20.366;2023-05-10T04:32:07;3.63;;;3.33;;
43793;SDS011;29414;44.798;20.366;2023-05-10T04:36:08;4.83;;;3.43;;
43793;SDS011;29414;44.798;20.366;2023-05-10T04:40:08;6.23;;;3.97;;
43793;SDS011;29414;44.798;20.366;2023-05-10T04:44:08;3.43;;;3.13;;
43793;SDS011;29414;44.798;20.366;2023-05-10T04:48:09;4.20;;;3.73;;
43793;SDS011;29414;44.798;20.366;2023-05-10T04:52:09;5.70;;;3.87;;
43793;SDS011;29414;44.798;20.366;2023-05-10T04:56:09;5.70;;;3.00;;
43793;SDS011;29414;44.798;20.366;2023-05-10T05:00:10;4.00;;;3.70;;
43793;SDS011;29414;44.798;20.366;2023-05-10T05:04:11;5.20;;;3.77;;
43793;SDS011;29414;44.798;20.366;2023-05-10T05:08:11;5.70;;;3.70;;
43793;SDS011;29414;44.798;20.366;2023-05-10T05:12:11;6.43;;;4.40;;
43793;SDS011;29414;44.798;20.366;2023-05-10T05:16:13;4.20;;;3.27;;
43793;SDS011;29414;44.798;20.366;2023-05-10T05:20:14;5.87;;;4.00;;
43793;SDS011;29414;44.798;20.366;2023-05-10T05:24:14;4.33;;;4.03;;
43793;SDS011;29414;44.798;20.366;2023-05-10T05:28:14;4.43;;;4.03;;
43793;SDS011;29414;44.798;20.366;2023-05-10T05:32:15;5.44;;;4.40;;
43793;SDS011;29414;44.798;20.366;2023-05-10T05:36:15;3.97;;;3.60;;
43793;SDS011;29414;44.798;20.366;2023-05-10T05:40:15;5.00;;;4.50;;
43793;SDS011;29414;44.798;20.366;2023-05-10T05:44:16;5.73;;;4.53;;
43793;SDS011;29414;44.798;20.366;2023-05-10T05:48:16;4.90;;;3.80;;
43793;SDS011;29414;44.798;20.366;2023-05-10T05:52:16;5.40;;;3.93;;
43793;SDS011;29414;44.798;20.366;2023-05-10T05:56:16;5.10;;;3.43;;
43793;SDS011;29414;44.798;20.366;2023-05-10T06:00:24;3.67;;;3.23;;
43793;SDS011;29414;44.798;20.366;2023-05-10T06:04:24;4.03;;;3.43;;
43793;SDS011;29414;44.798;20.366;2023-05-10T06:08:24;4.97;;;4.20;;
43793;SDS011;29414;44.798;20.366;2023-05-10T06:12:25;2.97;;;2.77;;
43793;SDS011;29414;44.798;20.366;2023-05-10T06:16:26;3.77;;;3.47;;
43793;SDS011;29414;44.798;20.366;2023-05-10T06:20:26;4.30;;;2.87;;
43793;SDS011;29414;44.798;20.366;2023-05-10T06:24:26;11.13;;;4.43;;
43793;SDS011;29414;44.798;20.366;2023-05-10T06:28:27;4.65;;;3.50;;
43793;SDS011;29414;44.798;20.366;2023-05-10T06:32:27;8.33;;;3.30;;
43793;SDS011;29414;44.798;20.366;2023-05-10T06:36:28;8.40;;;3.17;;
43793;SDS011;29414;44.798;20.366;2023-05-10T06:40:28;4.40;;;3.50;;
43793;SDS011;29414;44.798;20.366;2023-05-10T06:44:28;8.50;;;3.87;;
43793;SDS011;29414;44.798;20.366;2023-05-10T06:48:29;5.80;;;3.27;;
43793;SDS011;29414;44.798;20.366;2023-05-10T06:52:29;4.13;;;3.00;;
43793;SDS011;29414;44.798;20.366;2023-05-10T06:56:29;3.60;;;2.80;;
43793;SDS011;29414;44.798;20.366;2023-05-10T07:00:30;3.57;;;3.27;;
43793;SDS011;29414;44.798;20.366;2023-05-10T07:04:30;4.60;;;3.57;;
43793;SDS011;29414;44.798;20.366;2023-05-10T07:08:31;7.97;;;3.10;;
43793;SDS011;29414;44.798;20.366;2023-05-10T07:12:31;3.42;;;3.13;;
43793;SDS011;29414;44.798;20.366;2023-05-10T07:16:32;4.30;;;3.40;;
43793;SDS011;29414;44.798;20.366;2023-05-10T07:20:32;2.63;;;2.33;;
43793;SDS011;29414;44.798;20.366;2023-05-10T07:24:33;3.47;;;2.53;;
43793;SDS011;29414;44.798;20.366;2023-05-10T07:28:33;5.07;;;2.87;;
43793;SDS011;29414;44.798;20.366;2023-05-10T07:32:33;2.50;;;2.30;;
43793;SDS011;29414;44.798;20.366;2023-05-10T07:36:34;5.72;;;2.45;;
43793;SDS011;29414;44.798;20.366;2023-05-10T07:40:34;2.67;;;2.37;;
43793;SDS011;29414;44.798;20.366;2023-05-10T07:44:34;3.20;;;2.75;;
43793;SDS011;29414;44.798;20.366;2023-05-10T07:48:36;5.38;;;2.63;;
43793;SDS011;29414;44.798;20.366;2023-05-10T07:52:36;5.53;;;3.03;;
43793;SDS011;29414;44.798;20.366;2023-05-10T07:56:36;5.05;;;2.30;;
43793;SDS011;29414;44.798;20.366;2023-05-10T08:00:37;4.03;;;2.72;;
43793;SDS011;29414;44.798;20.366;2023-05-10T08:04:39;4.07;;;2.30;;
43793;SDS011;29414;44.798;20.366;2023-05-10T08:08:40;7.63;;;3.00;;
43793;SDS011;29414;44.798;20.366;2023-05-10T08:12:40;3.78;;;2.58;;
43793;SDS011;29414;44.798;20.366;2023-05-10T08:16:40;2.35;;;2.15;;
43793;SDS011;29414;44.798;20.366;2023-05-10T08:20:40;2.95;;;2.63;;
43793;SDS011;29414;44.798;20.366;2023-05-10T08:24:41;3.84;;;2.40;;
43793;SDS011;29414;44.798;20.366;2023-05-10T08:28:41;2.67;;;2.47;;
43793;SDS011;29414;44.798;20.366;2023-05-10T08:32:42;2.65;;;2.22;;
43793;SDS011;29414;44.798;20.366;2023-05-10T08:36:42;4.36;;;2.62;;
43793;SDS011;29414;44.798;20.366;2023-05-10T08:40:43;2.30;;;2.10;;
43793;SDS011;29414;44.798;20.366;2023-05-10T08:44:43;4.55;;;2.80;;
43793;SDS011;29414;44.798;20.366;2023-05-10T08:48:45;7.32;;;2.40;;
43793;SDS011;29414;44.798;20.366;2023-05-10T08:52:45;5.35;;;2.35;;
43793;SDS011;29414;44.798;20.366;2023-05-10T08:56:47;8.98;;;2.50;;
43793;SDS011;29414;44.798;20.366;2023-05-10T09:00:48;5.65;;;2.30;;
43793;SDS011;29414;44.798;20.366;2023-05-10T09:04:49;2.30;;;1.73;;
43793;SDS011;29414;44.798;20.366;2023-05-10T09:08:49;2.63;;;2.10;;
43793;SDS011;29414;44.798;20.366;2023-05-10T09:12:50;4.70;;;1.92;;
43793;SDS011;29414;44.798;20.366;2023-05-10T09:16:51;4.85;;;2.22;;
43793;SDS011;29414;44.798;20.366;2023-05-10T09:20:51;5.95;;;1.55;;
43793;SDS011;29414;44.798;20.366;2023-05-10T09:29:07;2.95;;;1.75;;
43793;SDS011;29414;44.798;20.366;2023-05-10T09:33:08;3.20;;;1.42;;
43793;SDS011;29414;44.798;20.366;2023-05-10T09:37:08;3.03;;;1.30;;
43793;SDS011;29414;44.798;20.366;2023-05-10T09:41:15;41.78;;;3.70;;
43793;SDS011;29414;44.798;20.366;2023-05-10T09:45:15;1.98;;;1.73;;
43793;SDS011;29414;44.798;20.366;2023-05-10T09:49:15;14.48;;;1.95;;
43793;SDS011;29414;44.798;20.366;2023-05-10T09:53:15;3.88;;;1.30;;
43793;SDS011;29414;44.798;20.366;2023-05-10T09:57:23;3.30;;;1.83;;
43793;SDS011;29414;44.798;20.366;2023-05-10T10:01:25;2.38;;;1.50;;
43793;SDS011;29414;44.798;20.366;2023-05-10T10:05:35;3.33;;;1.58;;
43793;SDS011;29414;44.798;20.366;2023-05-10T10:09:35;2.10;;;1.17;;
43793;SDS011;29414;44.798;20.366;2023-05-10T10:13:36;6.75;;;1.33;;
43793;SDS011;29414;44.798;20.366;2023-05-10T10:17:36;4.95;;;2.00;;
43793;SDS011;29414;44.798;20.366;2023-05-10T10:21:38;2.28;;;1.10;;
43793;SDS011;29414;44.798;20.366;2023-05-10T10:25:38;12.98;;;2.10;;
43793;SDS011;29414;44.798;20.366;2023-05-10T10:29:41;26.27;;;3.38;;
43793;SDS011;29414;44.798;20.366;2023-05-10T10:33:59;11.85;;;2.20;;
43793;SDS011;29414;44.798;20.366;2023-05-10T10:37:59;18.50;;;2.72;;
43793;SDS011;29414;44.798;20.366;2023-05-10T10:42:00;1.45;;;1.35;;
43793;SDS011;29414;44.798;20.366;2023-05-10T10:46:09;4.05;;;1.30;;
43793;SDS011;29414;44.798;20.366;2023-05-10T10:50:11;2.40;;;1.52;;
43793;SDS011;29414;44.798;20.366;2023-05-10T10:54:21;5.87;;;1.23;;
43793;SDS011;29414;44.798;20.366;2023-05-10T10:58:30;2.67;;;1.40;;
43793;SDS011;29414;44.798;20.366;2023-05-10T11:06:35;4.40;;;1.27;;
43793;SDS011;29414;44.798;20.366;2023-05-10T11:10:35;1.98;;;1.27;;
43793;SDS011;29414;44.798;20.366;2023-05-10T11:14:35;3.55;;;1.00;;
43793;SDS011;29414;44.798;20.366;2023-05-10T11:18:36;4.43;;;1.23;;
43793;SDS011;29414;44.798;20.366;2023-05-10T11:22:49;2.35;;;1.27;;
43793;SDS011;29414;44.798;20.366;2023-05-10T11:30:53;4.70;;;1.17;;
43793;SDS011;29414;44.798;20.366;2023-05-10T11:34:53;2.28;;;1.30;;
43793;SDS011;29414;44.798;20.366;2023-05-10T11:38:54;4.30;;;1.22;;
43793;SDS011;29414;44.798;20.366;2023-05-10T11:42:55;2.45;;;1.75;;
43793;SDS011;29414;44.798;20.366;2023-05-10T11:46:57;2.65;;;1.05;;
43793;SDS011;29414;44.798;20.366;2023-05-10T11:50:58;1.73;;;1.23;;
43793;SDS011;29414;44.798;20.366;2023-05-10T11:54:58;3.40;;;1.20;;
43793;SDS011;29414;44.798;20.366;2023-05-10T11:58:59;1.45;;;1.15;;
43793;SDS011;29414;44.798;20.366;2023-05-10T12:03:01;4.60;;;0.88;;
43793;SDS011;29414;44.798;20.366;2023-05-10T12:07:02;2.42;;;1.45;;
43793;SDS011;29414;44.798;20.366;2023-05-10T12:11:06;1.38;;;1.00;;
43793;SDS011;29414;44.798;20.366;2023-05-10T12:15:10;1.20;;;1.10;;
43793;SDS011;29414;44.798;20.366;2023-05-10T12:19:10;4.63;;;1.10;;
43793;SDS011;29414;44.798;20.366;2023-05-10T12:23:11;4.40;;;1.30;;
43793;SDS011;29414;44.798;20.366;2023-05-10T12:27:13;38.28;;;4.28;;
43793;SDS011;29414;44.798;20.366;2023-05-10T12:31:13;4.40;;;1.13;;
43793;SDS011;29414;44.798;20.366;2023-05-10T12:35:13;2.08;;;0.75;;
43793;SDS011;29414;44.798;20.366;2023-05-10T12:39:13;2.35;;;1.25;;
43793;SDS011;29414;44.798;20.366;2023-05-10T12:43:14;1.67;;;1.05;;
43793;SDS011;29414;44.798;20.366;2023-05-10T12:47:14;3.63;;;1.13;;
43793;SDS011;29414;44.798;20.366;2023-05-10T12:51:14;2.60;;;0.95;;
43793;SDS011;29414;44.798;20.366;2023-05-10T12:55:17;3.20;;;1.00;;
43793;SDS011;29414;44.798;20.366;2023-05-10T12:59:17;2.72;;;1.10;;
43793;SDS011;29414;44.798;20.366;2023-05-10T13:03:17;2.42;;;1.05;;
43793;SDS011;29414;44.798;20.366;2023-05-10T13:07:17;11.27;;;1.23;;
43793;SDS011;29414;44.798;20.366;2023-05-10T13:11:18;4.80;;;1.30;;
43793;SDS011;29414;44.798;20.366;2023-05-10T13:15:19;4.90;;;1.33;;
43793;SDS011;29414;44.798;20.366;2023-05-10T13:19:20;9.35;;;1.30;;
43793;SDS011;29414;44.798;20.366;2023-05-10T13:23:20;0.93;;;0.93;;
43793;SDS011;29414;44.798;20.366;2023-05-10T13:27:20;0.75;;;0.75;;
43793;SDS011;29414;44.798;20.366;2023-05-10T13:31:20;3.88;;;0.60;;
43793;SDS011;29414;44.798;20.366;2023-05-10T13:35:21;4.25;;;0.98;;
43793;SDS011;29414;44.798;20.366;2023-05-10T13:39:21;5.75;;;1.38;;
43793;SDS011;29414;44.798;20.366;2023-05-10T13:43:22;3.78;;;1.00;;
43793;SDS011;29414;44.798;20.366;2023-05-10T13:47:22;2.85;;;0.80;;
43793;SDS011;29414;44.798;20.366;2023-05-10T13:51:23;2.94;;;1.30;;
43793;SDS011;29414;44.798;20.366;2023-05-10T13:55:23;1.48;;;0.98;;
43793;SDS011;29414;44.798;20.366;2023-05-10T13:59:23;5.00;;;1.30;;
43793;SDS011;29414;44.798;20.366;2023-05-10T14:03:23;4.53;;;0.95;;
43793;SDS011;29414;44.798;20.366;2023-05-10T14:07:24;4.97;;;1.05;;
43793;SDS011;29414;44.798;20.366;2023-05-10T14:11:24;2.22;;;0.82;;
43793;SDS011;29414;44.798;20.366;2023-05-10T14:15:24;3.60;;;1.00;;
43793;SDS011;29414;44.798;20.366;2023-05-10T14:19:25;5.28;;;1.20;;
43793;SDS011;29414;44.798;20.366;2023-05-10T14:23:26;4.55;;;0.93;;
43793;SDS011;29414;44.798;20.366;2023-05-10T14:27:28;1.33;;;0.77;;
43793;SDS011;29414;44.798;20.366;2023-05-10T14:31:29;6.07;;;1.17;;
43793;SDS011;29414;44.798;20.366;2023-05-10T14:35:30;3.63;;;1.00;;
43793;SDS011;29414;44.798;20.366;2023-05-10T14:39:33;1.95;;;0.95;;
43793;SDS011;29414;44.798;20.366;2023-05-10T14:43:33;1.90;;;1.17;;
43793;SDS011;29414;44.798;20.366;2023-05-10T14:47:34;2.35;;;1.15;;
43793;SDS011;29414;44.798;20.366;2023-05-10T14:51:34;4.38;;;1.83;;
43793;SDS011;29414;44.798;20.366;2023-05-10T14:55:36;1.98;;;1.35;;
43793;SDS011;29414;44.798;20.366;2023-05-10T14:59:38;2.10;;;1.17;;
43793;SDS011;29414;44.798;20.366;2023-05-10T15:03:38;1.38;;;0.93;;
43793;SDS011;29414;44.798;20.366;2023-05-10T15:07:38;1.10;;;1.08;;
43793;SDS011;29414;44.798;20.366;2023-05-10T15:11:39;2.38;;;1.08;;
43793;SDS011;29414;44.798;20.366;2023-05-10T15:15:39;1.73;;;1.33;;
43793;SDS011;29414;44.798;20.366;2023-05-10T15:19:39;1.30;;;0.98;;
43793;SDS011;29414;44.798;20.366;2023-05-10T15:23:40;1.48;;;1.05;;
43793;SDS011;29414;44.798;20.366;2023-05-10T15:27:40;3.45;;;1.27;;
43793;SDS011;29414;44.798;20.366;2023-05-10T15:31:40;3.55;;;1.13;;
43793;SDS011;29414;44.798;20.366;2023-05-10T15:35:40;4.66;;;0.94;;
43793;SDS011;29414;44.798;20.366;2023-05-10T15:39:41;7.85;;;1.35;;
43793;SDS011;29414;44.798;20.366;2023-05-10T15:43:41;1.90;;;0.73;;
43793;SDS011;29414;44.798;20.366;2023-05-10T15:47:41;4.10;;;0.98;;
43793;SDS011;29414;44.798;20.366;2023-05-10T15:51:42;1.48;;;0.90;;
43793;SDS011;29414;44.798;20.366;2023-05-10T15:55:42;1.35;;;1.05;;
43793;SDS011;29414;44.798;20.366;2023-05-10T15:59:42;7.72;;;1.80;;
43793;SDS011;29414;44.798;20.366;2023-05-10T16:03:43;2.35;;;0.82;;
43793;SDS011;29414;44.798;20.366;2023-05-10T16:07:43;1.45;;;0.90;;
43793;SDS011;29414;44.798;20.366;2023-05-10T16:11:49;3.60;;;0.90;;
43793;SDS011;29414;44.798;20.366;2023-05-10T16:15:50;1.05;;;0.70;;
43793;SDS011;29414;44.798;20.366;2023-05-10T16:19:50;2.22;;;0.80;;
43793;SDS011;29414;44.798;20.366;2023-05-10T16:23:51;1.40;;;0.55;;
43793;SDS011;29414;44.798;20.366;2023-05-10T16:27:51;0.80;;;0.63;;
43793;SDS011;29414;44.798;20.366;2023-05-10T16:31:51;3.42;;;1.30;;
43793;SDS011;29414;44.798;20.366;2023-05-10T16:35:51;2.65;;;1.20;;
43793;SDS011;29414;44.798;20.366;2023-05-10T16:39:52;1.35;;;1.20;;
43793;SDS011;29414;44.798;20.366;2023-05-10T16:43:53;2.52;;;1.34;;
43793;SDS011;29414;44.798;20.366;2023-05-10T16:47:53;3.45;;;1.10;;
43793;SDS011;29414;44.798;20.366;2023-05-10T16:51:54;1.83;;;1.13;;
43793;SDS011;29414;44.798;20.366;2023-05-10T16:55:54;1.67;;;1.55;;
43793;SDS011;29414;44.798;20.366;2023-05-10T16:59:54;6.50;;;1.80;;
43793;SDS011;29414;44.798;20.366;2023-05-10T17:03:55;2.88;;;1.85;;
43793;SDS011;29414;44.798;20.366;2023-05-10T17:07:55;4.20;;;1.60;;
43793;SDS011;29414;44.798;20.366;2023-05-10T17:11:55;4.00;;;1.08;;
43793;SDS011;29414;44.798;20.366;2023-05-10T17:15:56;3.42;;;1.48;;
43793;SDS011;29414;44.798;20.366;2023-05-10T17:19:56;2.97;;;1.50;;
43793;SDS011;29414;44.798;20.366;2023-05-10T17:23:57;2.15;;;1.50;;
43793;SDS011;29414;44.798;20.366;2023-05-10T17:27:57;3.20;;;1.70;;
43793;SDS011;29414;44.798;20.366;2023-05-10T17:31:58;4.20;;;1.42;;
43793;SDS011;29414;44.798;20.366;2023-05-10T17:35:58;3.58;;;1.38;;
43793;SDS011;29414;44.798;20.366;2023-05-10T17:39:59;4.03;;;1.52;;
43793;SDS011;29414;44.798;20.366;2023-05-10T17:43:59;2.28;;;1.45;;
43793;SDS011;29414;44.798;20.366;2023-05-10T17:47:59;2.28;;;1.54;;
43793;SDS011;29414;44.798;20.366;2023-05-10T17:51:59;2.46;;;1.60;;
43793;SDS011;29414;44.798;20.366;2023-05-10T17:56:00;2.85;;;1.60;;
43793;SDS011;29414;44.798;20.366;2023-05-10T18:00:00;2.08;;;1.63;;
43793;SDS011;29414;44.798;20.366;2023-05-10T18:04:02;2.63;;;1.80;;
43793;SDS011;29414;44.798;20.366;2023-05-10T18:08:03;3.30;;;1.25;;
43793;SDS011;29414;44.798;20.366;2023-05-10T18:12:04;10.40;;;2.42;;
43793;SDS011;29414;44.798;20.366;2023-05-10T18:16:05;1.75;;;1.33;;
43793;SDS011;29414;44.798;20.366;2023-05-10T18:20:07;1.65;;;1.42;;
43793;SDS011;29414;44.798;20.366;2023-05-10T18:24:08;7.55;;;2.63;;
43793;SDS011;29414;44.798;20.366;2023-05-10T18:28:08;4.10;;;1.75;;
43793;SDS011;29414;44.798;20.366;2023-05-10T18:32:08;3.92;;;2.40;;
43793;SDS011;29414;44.798;20.366;2023-05-10T18:36:09;6.35;;;2.15;;
43793;SDS011;29414;44.798;20.366;2023-05-10T18:40:09;2.75;;;1.63;;
43793;SDS011;29414;44.798;20.366;2023-05-10T18:44:11;4.93;;;2.05;;
43793;SDS011;29414;44.798;20.366;2023-05-10T18:48:11;3.65;;;1.92;;
43793;SDS011;29414;44.798;20.366;2023-05-10T18:52:12;1.77;;;1.63;;
43793;SDS011;29414;44.798;20.366;2023-05-10T18:56:14;3.03;;;1.88;;
43793;SDS011;29414;44.798;20.366;2023-05-10T19:00:15;2.75;;;1.67;;
43793;SDS011;29414;44.798;20.366;2023-05-10T19:04:15;4.85;;;1.60;;
43793;SDS011;29414;44.798;20.366;2023-05-10T19:08:15;1.80;;;1.70;;
43793;SDS011;29414;44.798;20.366;2023-05-10T19:12:16;1.88;;;1.63;;
43793;SDS011;29414;44.798;20.366;2023-05-10T19:16:16;2.65;;;1.85;;
43793;SDS011;29414;44.798;20.366;2023-05-10T19:20:16;2.33;;;1.98;;
43793;SDS011;29414;44.798;20.366;2023-05-10T19:24:17;3.60;;;2.00;;
43793;SDS011;29414;44.798;20.366;2023-05-10T19:28:18;5.97;;;2.03;;
43793;SDS011;29414;44.798;20.366;2023-05-10T19:32:18;5.25;;;2.05;;
43793;SDS011;29414;44.798;20.366;2023-05-10T19:36:19;2.08;;;1.98;;
43793;SDS011;29414;44.798;20.366;2023-05-10T19:40:19;3.70;;;1.73;;
43793;SDS011;29414;44.798;20.366;2023-05-10T19:44:20;3.10;;;1.80;;
43793;SDS011;29414;44.798;20.366;2023-05-10T19:48:20;3.70;;;1.80;;
43793;SDS011;29414;44.798;20.366;2023-05-10T19:52:20;1.92;;;1.48;;
43793;SDS011;29414;44.798;20.366;2023-05-10T19:56:21;2.45;;;1.77;;
43793;SDS011;29414;44.798;20.366;2023-05-10T20:00:22;3.65;;;1.70;;
43793;SDS011;29414;44.798;20.366;2023-05-10T20:04:23;3.13;;;1.70;;
43793;SDS011;29414;44.798;20.366;2023-05-10T20:08:23;9.20;;;2.00;;
43793;SDS011;29414;44.798;20.366;2023-05-10T20:12:27;3.90;;;1.55;;
43793;SDS011;29414;44.798;20.366;2023-05-10T20:16:27;2.63;;;1.88;;
43793;SDS011;29414;44.798;20.366;2023-05-10T20:20:28;4.68;;;1.95;;
43793;SDS011;29414;44.798;20.366;2023-05-10T20:24:49;3.47;;;1.80;;
43793;SDS011;29414;44.798;20.366;2023-05-10T20:28:57;5.65;;;1.50;;
43793;SDS011;29414;44.798;20.366;2023-05-10T20:32:57;4.97;;;2.00;;
43793;SDS011;29414;44.798;20.366;2023-05-10T20:36:57;8.14;;;1.62;;
43793;SDS011;29414;44.798;20.366;2023-05-10T20:40:58;3.40;;;1.63;;
43793;SDS011;29414;44.798;20.366;2023-05-10T20:45:01;5.00;;;2.38;;
43793;SDS011;29414;44.798;20.366;2023-05-10T20:49:01;11.15;;;2.13;;
43793;SDS011;29414;44.798;20.366;2023-05-10T20:53:01;2.28;;;1.60;;
43793;SDS011;29414;44.798;20.366;2023-05-10T20:57:02;2.53;;;1.45;;
43793;SDS011;29414;44.798;20.366;2023-05-10T21:01:02;2.70;;;1.20;;
43793;SDS011;29414;44.798;20.366;2023-05-10T21:05:02;6.28;;;1.83;;
43793;SDS011;29414;44.798;20.366;2023-05-10T21:09:03;6.68;;;2.00;;
43793;SDS011;29414;44.798;20.366;2023-05-10T21:13:03;2.70;;;1.60;;
43793;SDS011;29414;44.798;20.366;2023-05-10T21:17:03;1.52;;;1.42;;
43793;SDS011;29414;44.798;20.366;2023-05-10T21:21:03;3.35;;;1.40;;
43793;SDS011;29414;44.798;20.366;2023-05-10T21:25:04;3.40;;;2.08;;
43793;SDS011;29414;44.798;20.366;2023-05-10T21:29:04;2.63;;;1.95;;
43793;SDS011;29414;44.798;20.366;2023-05-10T21:33:05;2.53;;;2.03;;
43793;SDS011;29414;44.798;20.366;2023-05-10T21:37:05;3.17;;;1.88;;
43793;SDS011;29414;44.798;20.366;2023-05-10T21:41:06;3.17;;;1.80;;
43793;SDS011;29414;44.798;20.366;2023-05-10T21:45:06;3.70;;;1.42;;
43793;SDS011;29414;44.798;20.366;2023-05-10T21:49:07;6.80;;;2.13;;
43793;SDS011;29414;44.798;20.366;2023-05-10T21:53:07;5.38;;;1.65;;
43793;SDS011;29414;44.798;20.366;2023-05-10T21:57:07;3.97;;;2.05;;
43793;SDS011;29414;44.798;20.366;2023-05-10T22:01:07;2.53;;;1.45;;
43793;SDS011;29414;44.798;20.366;2023-05-10T22:05:08;3.22;;;1.48;;
43793;SDS011;29414;44.798;20.366;2023-05-10T22:09:08;2.42;;;1.83;;
43793;SDS011;29414;44.798;20.366;2023-05-10T22:13:09;3.47;;;1.60;;
43793;SDS011;29414;44.798;20.366;2023-05-10T22:17:09;1.86;;;1.54;;
43793;SDS011;29414;44.798;20.366;2023-05-10T22:21:09;5.68;;;1.88;;
43793;SDS011;29414;44.798;20.366;2023-05-10T22:25:09;4.85;;;2.00;;
43793;SDS011;29414;44.798;20.366;2023-05-10T22:29:10;5.45;;;2.22;;
43793;SDS011;29414;44.798;20.366;2023-05-10T22:33:10;2.67;;;1.90;;
43793;SDS011;29414;44.798;20.366;2023-05-10T22:37:11;2.97;;;1.60;;
43793;SDS011;29414;44.798;20.366;2023-05-10T22:41:13;1.90;;;1.55;;
43793;SDS011;29414;44.798;20.366;2023-05-10T22:45:14;3.45;;;1.67;;
43793;SDS011;29414;44.798;20.366;2023-05-10T22:49:14;3.92;;;2.13;;
43793;SDS011;29414;44.798;20.366;2023-05-10T22:53:14;2.33;;;1.40;;
43793;SDS011;29414;44.798;20.366;2023-05-10T22:57:15;4.78;;;2.03;;
43793;SDS011;29414;44.798;20.366;2023-05-10T23:01:16;2.45;;;1.75;;
43793;SDS011;29414;44.798;20.366;2023-05-10T23:05:19;2.63;;;1.58;;
43793;SDS011;29414;44.798;20.366;2023-05-10T23:09:19;2.17;;;1.30;;
43793;SDS011;29414;44.798;20.366;2023-05-10T23:13:20;4.10;;;1.80;;
43793;SDS011;29414;44.798;20.366;2023-05-10T23:17:20;4.72;;;1.60;;
43793;SDS011;29414;44.798;20.366;2023-05-10T23:21:21;3.50;;;1.73;;
43793;SDS011;29414;44.798;20.366;2023-05-10T23:25:21;2.85;;;1.80;;
43793;SDS011;29414;44.798;20.366;2023-05-10T23:29:21;2.80;;;1.58;;
43793;SDS011;29414;44.798;20.366;2023-05-10T23:33:23;2.25;;;2.05;;
43793;SDS011;29414;44.798;20.366;2023-05-10T23:37:23;5.80;;;1.38;;
43793;SDS011;29414;44.798;20.366;2023-05-10T23:41:24;3.45;;;2.33;;
43793;SDS011;29414;44.798;20.366;2023-05-10T23:45:25;2.45;;;1.50;;
43793;SDS011;29414;44.798;20.366;2023-05-10T23:49:25;2.20;;;2.00;;
43793;SDS011;29414;44.798;20.366;2023-05-10T23:53:25;5.57;;;2.38;;
43793;SDS011;29414;44.798;20.366;2023-05-10T23:57:26;2.50;;;1.83;;
